CPX611 Details

Departure: Richmond International Airport (KRIC)
Arrival: Washington Dulles International Airport (KIAD)
Route: BNTLY CAVLR3


Current Weather Information
KRIC 251054Z 02007KT 10SM BKN070 19/16 A3016 RMK AO2 SLP217 T01890156
KIAD 251052Z 02004KT 10SM FEW030 BKN075 18/13 A3022 RMK AO2 SLP230 T01780133 $